createdAt,value
2023-10-15T07:05:22.368Z,1.60
2023-10-15T07:05:38.182Z,1.50
2023-10-15T07:05:55.743Z,2.70
2023-10-15T07:06:10.339Z,3.05
2023-10-15T07:06:27.225Z,2.05
2023-10-15T07:06:43.425Z,2.08
2023-10-15T07:06:56.553Z,1.77
2023-10-15T07:07:09.345Z,1.52
2023-10-15T07:07:21.860Z,1.70
2023-10-15T07:07:34.303Z,1.73
2023-10-15T07:07:47.908Z,1.85
2023-10-15T07:08:00.696Z,1.83
2023-10-15T07:08:16.523Z,1.92
2023-10-15T07:08:31.796Z,2.10
2023-10-15T07:08:44.894Z,2.03
2023-10-15T07:08:58.225Z,1.70
2023-10-15T07:09:13.033Z,1.70
2023-10-15T07:09:30.040Z,1.80
2023-10-15T07:09:46.110Z,1.73
2023-10-15T07:10:02.694Z,1.88
2023-10-15T07:10:15.934Z,1.95
2023-10-15T07:10:31.064Z,1.85
2023-10-15T07:10:44.005Z,2.00
2023-10-15T07:11:00.417Z,1.92
2023-10-15T07:11:15.742Z,1.73
2023-10-15T07:11:28.032Z,1.58
2023-10-15T07:11:41.906Z,1.70
2023-10-15T07:11:57.219Z,1.88
2023-10-15T07:12:16.588Z,1.70
2023-10-15T07:12:29.573Z,1.95
2023-10-15T07:12:41.905Z,1.85
2023-10-15T07:12:54.848Z,1.58
2023-10-15T07:13:08.380Z,1.67
2023-10-15T07:13:22.096Z,1.75
2023-10-15T07:13:48.001Z,2.13
2023-10-15T07:14:05.269Z,1.63
2023-10-15T07:14:18.179Z,1.52
2023-10-15T07:14:31.568Z,1.55
2023-10-15T07:14:45.120Z,1.65
2023-10-15T07:14:57.885Z,1.73
2023-10-15T07:15:11.878Z,1.55
2023-10-15T07:15:26.947Z,1.40
2023-10-15T07:15:43.164Z,1.58
2023-10-15T07:15:58.171Z,1.90
2023-10-15T07:16:15.494Z,2.17
2023-10-15T07:16:28.878Z,2.28
2023-10-15T07:16:43.566Z,2.10
2023-10-15T07:16:59.519Z,1.83
2023-10-15T07:17:17.912Z,1.80
2023-10-15T07:17:30.975Z,1.85
2023-10-15T07:17:51.192Z,1.42
2023-10-15T07:18:15.195Z,1.83
2023-10-15T07:22:05.436Z,1.90
2023-10-15T07:22:18.828Z,1.65
2023-10-15T07:22:31.288Z,1.67
2023-10-15T07:22:46.831Z,1.60
2023-10-15T07:23:01.818Z,1.65
2023-10-15T07:23:14.409Z,1.98
2023-10-15T07:23:26.847Z,2.15
2023-10-15T07:23:42.214Z,2.10
2023-10-15T07:23:55.309Z,1.58
2023-10-15T07:24:09.276Z,1.52
2023-10-15T07:24:21.836Z,1.40
2023-10-15T07:24:34.288Z,1.45
2023-10-15T07:24:49.188Z,1.55
2023-10-15T07:25:01.259Z,1.85
2023-10-15T07:25:17.172Z,1.88
2023-10-15T07:25:30.114Z,1.77
2023-10-15T07:25:45.367Z,1.88
2023-10-15T07:26:10.227Z,1.67
2023-10-15T07:26:31.766Z,2.03
2023-10-15T07:26:44.011Z,2.00
2023-10-15T07:26:56.355Z,1.75
2023-10-15T07:27:08.875Z,1.77
2023-10-15T07:27:22.041Z,1.33
2023-10-15T07:27:34.941Z,1.52
2023-10-15T07:27:49.104Z,1.83
2023-10-15T07:28:02.157Z,1.73
2023-10-15T07:28:17.409Z,1.63
2023-10-15T07:28:30.312Z,1.60
2023-10-15T07:28:46.079Z,1.55
2023-10-15T07:28:59.608Z,1.20
2023-10-15T07:29:11.972Z,1.30
2023-10-15T07:29:25.213Z,1.63
2023-10-15T07:29:38.043Z,2.00
2023-10-15T07:29:50.657Z,2.05
2023-10-15T07:30:04.233Z,2.15
2023-10-15T07:30:22.209Z,1.80
2023-10-15T07:30:36.266Z,1.58
2023-10-15T07:30:51.110Z,1.67
2023-10-15T07:31:06.294Z,1.60
2023-10-15T07:31:23.255Z,1.38
2023-10-15T07:31:37.522Z,1.30
2023-10-15T07:31:50.859Z,1.75
2023-10-15T07:32:06.467Z,1.63
2023-10-15T07:32:19.807Z,1.70
2023-10-15T07:32:35.662Z,2.20
2023-10-15T07:32:53.131Z,1.98
2023-10-15T07:33:08.650Z,1.80
2023-10-15T07:33:30.337Z,1.88
2023-10-15T07:33:47.514Z,1.67
2023-10-15T07:34:05.305Z,1.80
2023-10-15T07:34:20.069Z,1.70
2023-10-15T07:34:33.688Z,1.35
2023-10-15T07:34:49.333Z,1.35
2023-10-15T07:35:02.690Z,1.58
2023-10-15T07:35:16.586Z,2.13
2023-10-15T07:35:30.191Z,2.15
2023-10-15T07:35:45.142Z,1.98
2023-10-15T07:35:58.167Z,2.20
2023-10-15T07:36:10.599Z,2.00
2023-10-15T07:36:25.921Z,1.98
2023-10-15T07:36:38.810Z,2.40
2023-10-15T07:36:51.213Z,2.00
2023-10-15T07:37:04.919Z,1.80
2023-10-15T07:37:17.075Z,1.88
2023-10-15T07:37:32.795Z,1.58
2023-10-15T07:38:17.931Z,1.50
2023-10-15T07:38:31.920Z,1.70
2023-10-15T07:38:44.719Z,1.75
2023-10-15T07:38:56.900Z,1.70
2023-10-15T07:39:10.935Z,1.85
2023-10-15T07:39:23.941Z,2.17
2023-10-15T07:39:35.986Z,2.03
2023-10-15T07:39:48.036Z,1.80
2023-10-15T07:40:00.050Z,1.73
2023-10-15T07:40:14.718Z,1.85
2023-10-15T07:40:29.238Z,1.65
2023-10-15T07:40:42.457Z,1.67
2023-10-15T07:40:57.132Z,1.48
2023-10-15T07:41:10.257Z,1.23
2023-10-15T07:41:22.797Z,1.30
2023-10-15T07:41:35.214Z,1.38
2023-10-15T07:41:47.238Z,1.40
2023-10-15T07:41:59.263Z,1.50
2023-10-15T07:42:11.158Z,1.73
2023-10-15T07:42:23.444Z,2.00
2023-10-15T07:42:35.428Z,1.95
2023-10-15T07:42:49.205Z,1.67
2023-10-15T07:43:01.527Z,1.85
2023-10-15T07:43:14.416Z,2.05
2023-10-15T07:43:34.705Z,1.85
2023-10-15T07:43:47.117Z,1.60
2023-10-15T07:43:59.281Z,1.83
2023-10-15T07:44:12.649Z,1.70
2023-10-15T07:44:25.107Z,1.70
2023-10-15T07:44:37.430Z,1.85
2023-10-15T07:44:49.980Z,1.90
2023-10-15T07:45:02.133Z,1.90
2023-10-15T07:45:14.695Z,1.73
2023-10-15T07:45:28.837Z,1.85
2023-10-15T07:45:41.169Z,1.80
2023-10-15T07:45:53.361Z,1.67
2023-10-15T07:46:05.531Z,1.60
2023-10-15T07:46:17.913Z,1.60
2023-10-15T07:46:31.068Z,1.60
2023-10-15T07:46:43.825Z,1.95
2023-10-15T07:46:56.491Z,2.70
2023-10-15T07:47:09.988Z,2.33
2023-10-15T07:47:23.396Z,1.88
2023-10-15T07:47:37.314Z,1.65
2023-10-15T07:47:58.075Z,1.80
2023-10-15T07:48:10.942Z,2.17
2023-10-15T07:48:24.983Z,1.90
2023-10-15T07:48:42.848Z,1.90
2023-10-15T07:49:10.550Z,1.95
2023-10-15T07:49:24.776Z,2.03
2023-10-15T07:49:37.739Z,2.03
2023-10-15T07:49:54.293Z,1.83
2023-10-15T07:50:12.357Z,1.40
2023-10-15T07:50:25.567Z,1.60
2023-10-15T07:50:38.942Z,1.83
2023-10-15T07:50:53.490Z,1.85
2023-10-15T07:51:06.275Z,1.45
2023-10-15T07:51:23.040Z,1.77
2023-10-15T07:51:36.483Z,1.80
2023-10-15T07:51:51.360Z,1.40
2023-10-15T07:52:08.425Z,1.45
2023-10-15T07:52:20.995Z,1.63
2023-10-15T07:52:33.933Z,1.88
2023-10-15T07:52:47.445Z,1.98
2023-10-15T07:53:00.960Z,1.92
2023-10-15T07:53:14.280Z,1.77
2023-10-15T07:53:27.314Z,1.85
2023-10-15T07:53:40.599Z,1.33
2023-10-15T07:53:55.575Z,1.27
2023-10-15T07:54:09.291Z,1.73
2023-10-15T07:54:25.903Z,1.98
2023-10-15T07:54:39.049Z,2.13
2023-10-15T07:54:52.698Z,2.05
2023-10-15T07:55:06.736Z,1.90
2023-10-15T07:55:26.667Z,1.67
2023-10-15T07:55:44.093Z,1.67
2023-10-15T07:56:09.991Z,1.67
2023-10-15T07:56:27.206Z,2.17
2023-10-15T07:56:51.177Z,1.67
2023-10-15T07:57:29.343Z,1.55
2023-10-15T07:57:41.220Z,1.75
2023-10-15T07:57:53.613Z,2.20
2023-10-15T07:58:06.298Z,1.90
2023-10-15T07:58:20.691Z,2.13
2023-10-15T07:58:35.946Z,1.95
2023-10-15T07:58:51.770Z,1.75
2023-10-15T07:59:07.966Z,1.63
2023-10-15T07:59:22.184Z,1.83
2023-10-15T07:59:36.014Z,2.03
2023-10-15T07:59:53.217Z,1.70
2023-10-15T08:00:08.083Z,1.60
2023-10-15T08:00:24.867Z,1.77
2023-10-15T08:00:37.137Z,2.00
2023-10-15T08:01:05.278Z,1.60
2023-10-15T08:01:23.348Z,2.03
2023-10-15T08:01:39.148Z,2.30
2023-10-15T08:01:54.303Z,2.15
2023-10-15T08:02:11.926Z,1.60
2023-10-15T08:02:56.799Z,1.80
2023-10-15T08:03:10.270Z,2.03
2023-10-15T08:03:23.708Z,1.80
2023-10-15T08:03:44.793Z,1.83
2023-10-15T08:04:18.477Z,1.70
2023-10-15T08:04:37.192Z,1.72
2023-10-15T08:05:41.843Z,1.60
2023-10-15T08:06:01.376Z,1.67
2023-10-15T08:06:16.775Z,2.30
2023-10-15T08:07:04.522Z,1.48
2023-10-15T08:07:26.189Z,1.75
2023-10-15T08:07:40.046Z,2.35
2023-10-15T08:07:55.717Z,1.95
2023-10-15T08:08:10.876Z,1.63
2023-10-15T08:08:23.731Z,2.03
2023-10-15T08:09:03.901Z,1.60
2023-10-15T08:09:16.924Z,1.85
2023-10-15T08:10:58.254Z,1.90
2023-10-15T08:11:11.733Z,1.75
2023-10-15T08:11:25.730Z,1.70
2023-10-15T08:11:40.157Z,1.85
2023-10-15T08:11:53.232Z,1.90
2023-10-15T08:12:06.479Z,1.80
2023-10-15T08:12:29.096Z,1.73
2023-10-15T08:12:44.792Z,1.60
2023-10-15T08:12:58.618Z,1.48
2023-10-15T08:13:11.060Z,1.45
2023-10-15T08:13:25.371Z,1.67
2023-10-15T08:13:40.884Z,1.83
2023-10-15T08:13:53.854Z,1.92
2023-10-15T08:14:14.156Z,2.05
2023-10-15T08:14:27.412Z,2.17
2023-10-15T08:14:40.752Z,1.63
2023-10-15T08:14:54.719Z,1.60
2023-10-15T08:15:10.050Z,1.58
2023-10-15T08:15:22.815Z,2.00
2023-10-15T08:15:35.885Z,2.20
2023-10-15T08:15:49.516Z,2.10
2023-10-15T08:16:02.568Z,2.28
2023-10-15T08:16:15.203Z,2.13
2023-10-15T08:16:28.210Z,1.95
2023-10-15T08:16:41.597Z,1.83
2023-10-15T08:16:54.125Z,1.77
2023-10-15T08:17:07.236Z,1.88
2023-10-15T08:17:21.032Z,1.88
2023-10-15T08:17:34.211Z,1.90
2023-10-15T08:17:48.158Z,1.67
2023-10-15T08:18:04.501Z,1.88
2023-10-15T08:18:18.201Z,2.40
2023-10-15T08:18:44.830Z,2.33
2023-10-15T08:19:00.430Z,2.00
2023-10-15T08:19:14.006Z,2.15
2023-10-15T08:19:26.868Z,2.70
2023-10-15T08:19:40.642Z,2.80
2023-10-15T08:19:54.895Z,2.55
2023-10-15T08:20:09.828Z,2.97
2023-10-15T08:20:23.035Z,3.85
2023-10-15T08:20:37.631Z,3.28
2023-10-15T08:20:52.673Z,2.65
2023-10-15T08:21:06.523Z,2.17
2023-10-15T08:21:20.307Z,2.03
2023-10-15T08:21:35.066Z,2.22
2023-10-15T08:21:51.355Z,2.25
2023-10-15T08:22:12.871Z,2.25
2023-10-15T08:22:37.466Z,1.70
2023-10-15T08:22:53.324Z,2.05
2023-10-15T08:23:15.183Z,1.98
2023-10-15T08:23:56.915Z,1.58
2023-10-15T08:24:12.468Z,1.83
2023-10-15T08:24:25.420Z,1.92
2023-10-15T08:24:38.155Z,1.70
2023-10-15T08:24:50.951Z,1.70
2023-10-15T08:25:03.607Z,2.22
2023-10-15T08:25:16.740Z,2.38
2023-10-15T08:25:31.607Z,1.75
2023-10-15T08:25:44.368Z,1.50
2023-10-15T08:25:56.556Z,1.50
2023-10-15T08:26:09.256Z,1.52
2023-10-15T08:26:21.540Z,1.70
2023-10-15T08:26:34.598Z,1.45
2023-10-15T08:26:47.084Z,1.42
2023-10-15T08:27:01.015Z,1.67
2023-10-15T08:27:13.951Z,1.90
2023-10-15T08:27:27.243Z,1.73
2023-10-15T08:27:39.782Z,1.52
2023-10-15T08:27:52.169Z,1.80
2023-10-15T08:28:05.664Z,2.05
2023-10-15T08:28:20.241Z,1.95
2023-10-15T08:28:38.059Z,2.00
2023-10-15T08:28:50.576Z,1.88
2023-10-15T08:29:03.112Z,1.65
2023-10-15T08:29:18.502Z,1.40
2023-10-15T08:29:33.688Z,1.40
2023-10-15T08:29:55.517Z,1.60
2023-10-15T08:30:10.763Z,1.80
2023-10-15T08:30:23.426Z,1.65
2023-10-15T08:30:38.028Z,1.75
2023-10-15T08:30:52.783Z,1.85
2023-10-15T08:31:05.668Z,1.45
2023-10-15T08:31:19.931Z,1.63
2023-10-15T08:32:03.647Z,1.90
2023-10-15T08:32:15.790Z,1.90
2023-10-15T08:32:28.456Z,1.90
2023-10-15T08:32:41.366Z,1.80
2023-10-15T08:32:53.489Z,1.92
2023-10-15T08:33:06.659Z,2.13
2023-10-15T08:33:18.841Z,2.15
2023-10-15T08:33:31.043Z,2.08
2023-10-15T08:33:46.763Z,1.83
2023-10-15T08:34:01.275Z,1.80
2023-10-15T08:34:13.284Z,1.65
2023-10-15T08:34:25.730Z,1.17
2023-10-15T08:34:38.141Z,1.33
2023-10-15T08:34:50.878Z,2.78
2023-10-15T08:35:03.807Z,10.00
2023-10-15T08:35:17.339Z,12.70
2023-10-15T08:35:29.645Z,7.35
2023-10-15T08:35:41.872Z,2.92
2023-10-15T08:35:54.367Z,1.83
2023-10-15T08:36:07.213Z,1.60
2023-10-15T08:36:19.491Z,1.60
2023-10-15T08:36:32.094Z,1.65
2023-10-15T08:36:44.219Z,1.83
2023-10-15T08:36:56.303Z,1.95
2023-10-15T08:37:08.636Z,1.70
2023-10-15T08:37:20.987Z,1.60
2023-10-15T08:37:35.019Z,1.75
2023-10-15T08:37:47.817Z,1.60
2023-10-15T08:38:00.081Z,1.83
2023-10-15T08:38:12.290Z,1.95
2023-10-15T08:38:24.619Z,2.05
2023-10-15T08:38:36.917Z,2.03
2023-10-15T08:38:49.567Z,2.08
2023-10-15T08:39:12.701Z,2.00
2023-10-15T08:39:37.791Z,1.75
2023-10-15T08:39:52.950Z,1.88
2023-10-15T08:40:10.059Z,1.85
2023-10-15T08:40:28.440Z,1.60
2023-10-15T08:40:41.732Z,1.88
2023-10-15T08:40:57.991Z,1.92
2023-10-15T08:41:13.647Z,1.85
2023-10-15T08:41:29.368Z,1.92
2023-10-15T08:41:44.935Z,2.03
2023-10-15T08:41:59.966Z,2.28
2023-10-15T08:42:15.370Z,2.08
2023-10-15T08:42:32.342Z,1.70
2023-10-15T08:42:59.624Z,1.73
2023-10-15T08:43:20.671Z,1.80
2023-10-15T08:43:33.468Z,1.60
2023-10-15T08:43:47.304Z,1.83
2023-10-15T08:44:00.386Z,1.92
2023-10-15T08:44:16.397Z,1.83
2023-10-15T08:44:30.190Z,1.60
2023-10-15T08:44:44.837Z,1.45
2023-10-15T08:45:00.363Z,1.70
2023-10-15T08:45:13.919Z,2.38
2023-10-15T08:45:27.445Z,2.53
2023-10-15T08:45:40.754Z,2.40
2023-10-15T08:45:55.046Z,2.03
2023-10-15T08:46:09.003Z,1.70
2023-10-15T08:46:23.185Z,1.60
2023-10-15T08:46:40.227Z,1.88
2023-10-15T08:46:55.409Z,1.90
2023-10-15T08:47:11.540Z,1.50
2023-10-15T08:47:26.517Z,1.70
2023-10-15T08:47:40.806Z,1.67
2023-10-15T08:47:55.512Z,1.27
2023-10-15T08:48:12.226Z,1.50
2023-10-15T08:48:26.003Z,1.75
2023-10-15T08:48:43.486Z,1.90
2023-10-15T08:48:57.196Z,1.70
2023-10-15T08:49:09.852Z,1.80
2023-10-15T08:49:28.998Z,2.10
2023-10-15T08:49:50.697Z,1.70
2023-10-15T08:50:04.362Z,1.80
2023-10-15T08:50:18.079Z,2.00
2023-10-15T08:50:31.983Z,2.38
2023-10-15T08:50:48.929Z,2.70
2023-10-15T08:51:03.389Z,2.13
2023-10-15T08:51:17.922Z,2.25
2023-10-15T08:51:30.960Z,2.65
2023-10-15T08:51:44.896Z,2.58
2023-10-15T08:52:03.314Z,2.83
2023-10-15T08:52:19.363Z,2.90
2023-10-15T08:52:33.132Z,2.22
2023-10-15T08:52:49.643Z,2.80
2023-10-15T08:53:02.494Z,4.22
2023-10-15T08:53:15.564Z,4.10
2023-10-15T08:53:29.612Z,3.40
2023-10-15T08:53:44.280Z,4.57
2023-10-15T08:54:00.662Z,4.32
2023-10-15T08:54:15.319Z,3.35
2023-10-15T08:54:29.363Z,3.47
2023-10-15T08:54:50.048Z,2.55
2023-10-15T08:55:02.660Z,2.63
2023-10-15T08:55:15.954Z,3.03
2023-10-15T08:55:28.861Z,2.88
2023-10-15T08:55:43.347Z,3.03
2023-10-15T08:55:56.423Z,3.50
2023-10-15T08:56:10.958Z,3.20
2023-10-15T08:56:23.527Z,2.10
2023-10-15T08:56:39.723Z,2.00
2023-10-15T08:56:53.967Z,1.80
2023-10-15T08:57:07.871Z,1.30
2023-10-15T08:57:20.969Z,1.45
2023-10-15T08:57:33.043Z,1.90
2023-10-15T08:57:46.574Z,2.25
2023-10-15T08:58:04.981Z,2.15
2023-10-15T08:58:21.790Z,1.85
2023-10-15T08:58:35.938Z,1.77
2023-10-15T08:58:51.693Z,2.10
2023-10-15T08:59:04.366Z,2.00
2023-10-15T08:59:17.634Z,1.73
2023-10-15T08:59:31.738Z,1.95
2023-10-15T08:59:45.144Z,1.90
2023-10-15T08:59:59.550Z,1.95
2023-10-15T09:00:24.778Z,2.17
2023-10-15T09:00:43.549Z,2.08
2023-10-15T09:00:56.660Z,1.95
2023-10-15T09:01:10.654Z,2.22
2023-10-15T09:01:24.236Z,2.45
2023-10-15T09:01:38.634Z,2.25
2023-10-15T09:01:52.679Z,2.03
2023-10-15T09:02:06.678Z,2.15
2023-10-15T09:02:21.421Z,1.95
2023-10-15T09:02:34.894Z,1.70
2023-10-15T09:02:48.422Z,1.80
2023-10-15T09:03:05.627Z,2.13
2023-10-15T09:03:20.058Z,1.90
2023-10-15T09:03:32.809Z,1.92
2023-10-15T09:03:45.825Z,2.28
2023-10-15T09:03:59.934Z,2.33
2023-10-15T09:04:13.812Z,1.98
2023-10-15T09:04:26.592Z,1.77
2023-10-15T09:04:38.828Z,1.50
2023-10-15T09:04:51.355Z,1.77
2023-10-15T09:05:04.144Z,2.00
2023-10-15T09:05:16.664Z,2.13
2023-10-15T09:05:29.701Z,1.63
2023-10-15T09:05:42.364Z,1.52
2023-10-15T09:05:56.033Z,1.70
2023-10-15T09:06:08.714Z,1.95
2023-10-15T09:06:21.459Z,1.92
2023-10-15T09:06:35.232Z,1.88
2023-10-15T09:06:48.804Z,2.13
2023-10-15T09:07:01.837Z,2.10
2023-10-15T09:07:15.183Z,2.20
2023-10-15T09:07:28.226Z,1.98
2023-10-15T09:07:40.740Z,1.98
2023-10-15T09:07:54.966Z,2.10
2023-10-15T09:08:09.082Z,2.10
2023-10-15T09:08:22.304Z,2.22
2023-10-15T09:08:34.740Z,2.28
2023-10-15T09:08:47.452Z,2.25
2023-10-15T09:08:59.711Z,2.05
2023-10-15T09:09:11.797Z,2.05
2023-10-15T09:09:23.841Z,2.00
2023-10-15T09:09:36.179Z,2.20
2023-10-15T09:09:49.725Z,1.92
2023-10-15T09:10:02.317Z,1.77
2023-10-15T09:10:15.944Z,1.70
2023-10-15T09:10:28.216Z,1.55
2023-10-15T09:10:41.931Z,1.73
2023-10-15T09:10:55.406Z,1.70
2023-10-15T09:11:07.707Z,1.77
2023-10-15T09:11:19.959Z,2.10
2023-10-15T09:11:32.173Z,2.20
2023-10-15T09:11:45.017Z,2.28
2023-10-15T09:11:58.295Z,2.05
2023-10-15T09:12:12.015Z,1.55
2023-10-15T09:12:24.342Z,1.77
2023-10-15T09:12:36.770Z,2.13
2023-10-15T09:12:49.170Z,2.10
2023-10-15T09:13:01.314Z,2.08
2023-10-15T09:13:14.464Z,1.75
2023-10-15T09:13:26.718Z,1.73
2023-10-15T09:13:39.252Z,1.80
2023-10-15T09:13:52.646Z,2.10
2023-10-15T09:14:05.128Z,2.10
2023-10-15T09:14:17.527Z,1.88
2023-10-15T09:14:39.586Z,1.80
2023-10-15T09:14:52.296Z,1.88
2023-10-15T09:15:09.215Z,1.88
2023-10-15T09:15:21.465Z,2.03
2023-10-15T09:15:40.149Z,2.08
2023-10-15T09:15:54.165Z,2.05
2023-10-15T09:16:07.904Z,1.85
2023-10-15T09:16:22.400Z,1.92
2023-10-15T09:16:36.578Z,1.88
2023-10-15T09:16:49.329Z,1.77
2023-10-15T09:17:01.781Z,1.70
2023-10-15T09:17:16.409Z,1.48
2023-10-15T09:17:29.155Z,1.95
2023-10-15T09:17:41.856Z,2.50
2023-10-15T09:17:56.930Z,2.53
2023-10-15T09:18:09.431Z,2.30
2023-10-15T09:18:22.188Z,1.92
2023-10-15T09:18:35.591Z,1.60
2023-10-15T09:18:48.728Z,1.98
2023-10-15T09:19:01.607Z,2.38
2023-10-15T09:19:13.994Z,2.03
2023-10-15T09:19:26.873Z,1.77
2023-10-15T09:19:40.397Z,1.80
2023-10-15T09:19:57.344Z,2.13
2023-10-15T09:20:14.300Z,2.40
2023-10-15T09:20:28.880Z,2.08
2023-10-15T09:20:43.957Z,2.22
2023-10-15T09:20:59.253Z,2.30
2023-10-15T09:21:12.104Z,1.88
2023-10-15T09:21:25.809Z,1.85
2023-10-15T09:21:38.560Z,2.00
2023-10-15T09:21:50.591Z,1.95
2023-10-15T09:22:02.805Z,1.63
2023-10-15T09:22:15.861Z,1.75
2023-10-15T09:22:30.375Z,1.92
2023-10-15T09:22:46.253Z,1.88
2023-10-15T09:23:09.314Z,1.83
2023-10-15T09:23:33.869Z,1.92
2023-10-15T09:23:47.007Z,2.00
2023-10-15T09:24:00.341Z,1.95
2023-10-15T09:24:13.272Z,2.00
2023-10-15T09:24:27.879Z,2.00
2023-10-15T09:24:47.156Z,1.60
2023-10-15T09:25:00.424Z,1.80
2023-10-15T09:25:13.325Z,2.15
2023-10-15T09:25:33.578Z,2.22
2023-10-15T09:25:46.680Z,1.95
2023-10-15T09:25:59.343Z,1.55
2023-10-15T09:26:25.860Z,2.22
2023-10-15T09:26:39.562Z,2.15
2023-10-15T09:26:51.429Z,1.98
2023-10-15T09:27:03.579Z,2.45
2023-10-15T09:27:15.670Z,2.70
2023-10-15T09:27:27.644Z,2.65
2023-10-15T09:27:46.958Z,2.35
2023-10-15T09:28:02.205Z,1.85
2023-10-15T09:28:14.507Z,1.70
2023-10-15T09:28:26.658Z,2.00
2023-10-15T09:28:38.850Z,2.10
2023-10-15T09:28:50.698Z,2.00
2023-10-15T09:29:02.860Z,1.92
2023-10-15T09:29:21.206Z,2.00
2023-10-15T09:29:33.430Z,1.98
2023-10-15T09:29:45.590Z,1.75
2023-10-15T09:30:06.761Z,1.45
2023-10-15T09:30:22.382Z,1.50
2023-10-15T09:30:34.235Z,1.50
2023-10-15T09:30:46.197Z,1.67
2023-10-15T09:31:04.808Z,1.67
2023-10-15T09:31:16.820Z,2.05
2023-10-15T09:31:28.775Z,2.25
2023-10-15T09:31:40.838Z,1.92
2023-10-15T09:31:52.797Z,1.77
2023-10-15T09:32:05.481Z,1.60
2023-10-15T09:32:17.432Z,1.65
2023-10-15T09:32:32.644Z,1.90
2023-10-15T09:32:44.769Z,2.20
2023-10-15T09:32:57.039Z,2.28
2023-10-15T09:33:09.002Z,2.13
2023-10-15T09:33:28.502Z,2.08
2023-10-15T09:33:41.208Z,1.90
2023-10-15T09:33:53.053Z,1.90
2023-10-15T09:34:05.345Z,1.73
2023-10-15T09:34:17.689Z,1.70
2023-10-15T09:34:30.276Z,1.52
2023-10-15T09:34:42.325Z,1.55
2023-10-15T09:34:54.533Z,1.70
2023-10-15T09:35:06.735Z,2.17
2023-10-15T09:35:18.982Z,2.40
2023-10-15T09:35:31.170Z,2.15
2023-10-15T09:35:43.008Z,1.83
2023-10-15T09:35:54.874Z,1.92
2023-10-15T09:36:07.256Z,2.10
2023-10-15T09:36:21.209Z,2.05
2023-10-15T09:36:36.255Z,2.38
2023-10-15T09:36:48.043Z,1.98
2023-10-15T09:37:00.294Z,1.63
2023-10-15T09:37:12.269Z,1.63
2023-10-15T09:37:26.178Z,1.52
2023-10-15T09:37:38.229Z,1.65
2023-10-15T09:37:50.668Z,1.80
2023-10-15T09:38:04.553Z,1.90
2023-10-15T09:38:16.618Z,2.00
2023-10-15T09:38:28.610Z,1.88
2023-10-15T09:38:40.548Z,2.05
2023-10-15T09:38:52.465Z,1.83
2023-10-15T09:39:05.733Z,1.63
2023-10-15T09:39:17.709Z,1.50
2023-10-15T09:39:30.117Z,1.67
2023-10-15T09:39:42.041Z,2.00
2023-10-15T09:39:54.051Z,2.25
2023-10-15T09:40:07.315Z,2.35
2023-10-15T09:40:19.560Z,2.50
2023-10-15T09:40:31.498Z,2.50
2023-10-15T09:40:43.822Z,2.00
2023-10-15T09:40:55.888Z,2.25
2023-10-15T09:41:08.120Z,2.35
2023-10-15T09:41:20.501Z,2.20
2023-10-15T09:41:32.524Z,1.80
2023-10-15T09:41:45.632Z,2.00
2023-10-15T09:41:58.199Z,1.98
2023-10-15T09:42:10.276Z,1.70
2023-10-15T09:42:22.857Z,1.95
2023-10-15T09:42:39.446Z,1.90
2023-10-15T09:42:52.352Z,1.70
2023-10-15T09:43:04.674Z,1.40
2023-10-15T09:43:17.466Z,1.55
2023-10-15T09:43:30.499Z,1.98
2023-10-15T09:43:44.489Z,2.15
2023-10-15T09:43:58.087Z,2.30
2023-10-15T09:44:10.928Z,2.45
2023-10-15T09:44:24.027Z,1.90
2023-10-15T09:44:36.540Z,1.55
2023-10-15T09:44:49.353Z,1.63
2023-10-15T09:45:06.030Z,1.77
2023-10-15T09:45:18.090Z,2.10
2023-10-15T09:45:30.308Z,2.17
2023-10-15T09:45:43.143Z,2.30
2023-10-15T09:45:55.654Z,2.40
2023-10-15T09:46:08.605Z,2.17
2023-10-15T09:46:22.038Z,1.80
2023-10-15T09:46:34.129Z,1.75
2023-10-15T09:46:46.586Z,1.75
2023-10-15T09:46:59.084Z,1.90
2023-10-15T09:47:11.653Z,1.75
2023-10-15T09:47:23.915Z,1.55
2023-10-15T09:47:36.804Z,1.48
2023-10-15T09:47:50.252Z,1.40
2023-10-15T09:48:03.374Z,1.67
2023-10-15T09:48:15.853Z,1.90
2023-10-15T09:48:28.420Z,1.92
2023-10-15T09:48:42.237Z,1.77
2023-10-15T09:48:54.685Z,1.65
2023-10-15T09:49:07.006Z,1.83
2023-10-15T09:49:19.960Z,1.75
2023-10-15T09:49:32.508Z,1.98
2023-10-15T09:49:45.354Z,2.20
2023-10-15T09:49:58.542Z,2.10
2023-10-15T09:50:11.511Z,2.13
2023-10-15T09:50:23.451Z,2.10
2023-10-15T09:50:37.579Z,2.08
2023-10-15T09:50:50.852Z,1.98
2023-10-15T09:51:03.054Z,2.03
2023-10-15T09:51:15.265Z,1.90
2023-10-15T09:51:28.035Z,1.90
2023-10-15T09:51:41.202Z,2.30
2023-10-15T09:51:53.352Z,2.40
2023-10-15T09:52:07.147Z,2.33
2023-10-15T09:52:19.669Z,2.25
2023-10-15T09:52:32.125Z,2.08
2023-10-15T09:52:46.398Z,2.20
2023-10-15T09:52:59.764Z,2.33
2023-10-15T09:53:14.454Z,2.00
2023-10-15T09:53:27.451Z,1.70
2023-10-15T09:53:40.727Z,2.40
2023-10-15T09:53:54.732Z,2.30
2023-10-15T09:54:07.992Z,1.55
2023-10-15T09:54:21.358Z,1.42
2023-10-15T09:54:34.147Z,1.88
2023-10-15T09:54:49.724Z,2.10
2023-10-15T09:55:03.181Z,2.15
2023-10-15T09:55:15.491Z,2.13
2023-10-15T09:55:29.648Z,2.03
2023-10-15T09:55:42.304Z,1.75
2023-10-15T09:55:55.354Z,2.03
2023-10-15T09:56:09.915Z,2.40
2023-10-15T09:56:23.920Z,2.28
2023-10-15T09:56:38.634Z,2.42
2023-10-15T09:56:51.372Z,2.85
2023-10-15T09:57:03.736Z,2.40
2023-10-15T09:57:18.153Z,2.00
2023-10-15T09:57:31.048Z,2.05
2023-10-15T09:57:43.659Z,2.03
2023-10-15T09:57:56.961Z,1.73
2023-10-15T09:58:10.988Z,1.90
2023-10-15T09:58:22.908Z,2.00
2023-10-15T09:58:34.836Z,1.88
2023-10-15T09:58:46.923Z,1.92
2023-10-15T09:58:59.142Z,2.15
2023-10-15T09:59:11.161Z,1.98
2023-10-15T09:59:23.182Z,2.30
2023-10-15T09:59:34.967Z,2.17
2023-10-15T09:59:48.999Z,1.70
2023-10-15T10:00:01.019Z,1.90
2023-10-15T10:00:14.846Z,1.90
2023-10-15T10:00:29.631Z,1.73
2023-10-15T10:00:45.338Z,1.60
2023-10-15T10:01:01.894Z,1.67
2023-10-15T10:01:16.494Z,1.90
2023-10-15T10:01:30.033Z,1.80
2023-10-15T10:01:47.880Z,1.75
2023-10-15T10:02:02.229Z,2.20
2023-10-15T10:02:21.213Z,2.08
2023-10-15T10:02:44.357Z,2.08
2023-10-15T10:03:10.600Z,1.88
2023-10-15T10:03:52.216Z,2.13
2023-10-15T10:04:25.842Z,1.88
2023-10-15T10:04:57.725Z,1.98
2023-10-15T10:05:22.281Z,1.92
2023-10-15T10:05:44.421Z,2.17
2023-10-15T10:06:05.715Z,1.98
2023-10-15T10:06:29.669Z,1.70
2023-10-15T10:07:10.796Z,1.98
2023-10-15T10:07:44.536Z,1.63
2023-10-15T10:08:07.666Z,1.52
2023-10-15T10:08:35.573Z,2.08
2023-10-15T10:09:05.804Z,1.88
2023-10-15T10:09:34.657Z,1.80
2023-10-15T10:10:14.799Z,1.70
2023-10-15T10:10:46.836Z,1.77
2023-10-15T10:11:16.523Z,1.58
2023-10-15T10:11:43.734Z,1.98
2023-10-15T10:12:14.374Z,1.60
2023-10-15T10:12:36.978Z,1.42
2023-10-15T10:13:07.121Z,1.80
2023-10-15T10:13:42.999Z,1.73
2023-10-15T10:14:13.707Z,1.88
2023-10-15T10:14:45.481Z,1.52
2023-10-15T10:15:12.717Z,1.75
2023-10-15T10:15:41.152Z,1.42
2023-10-15T10:15:54.228Z,1.55
2023-10-15T10:16:15.523Z,2.08
2023-10-15T10:16:29.705Z,2.13
2023-10-15T10:16:42.290Z,1.50
2023-10-15T10:16:54.927Z,2.42
2023-10-15T10:17:09.827Z,2.30
2023-10-15T10:17:23.266Z,1.45
2023-10-15T10:17:38.121Z,1.80
2023-10-15T10:17:51.629Z,1.80
2023-10-15T10:18:04.961Z,1.75
2023-10-15T10:18:17.321Z,2.00
2023-10-15T10:18:32.186Z,1.92
2023-10-15T10:18:45.331Z,1.50
2023-10-15T10:18:57.646Z,1.55
2023-10-15T10:19:10.614Z,1.77
2023-10-15T10:19:23.054Z,1.85
2023-10-15T10:19:35.331Z,1.77
2023-10-15T10:19:49.945Z,1.83
2023-10-15T10:20:02.726Z,2.10
2023-10-15T10:20:15.017Z,1.90
2023-10-15T10:20:32.081Z,1.67
2023-10-15T10:20:45.790Z,2.03
2023-10-15T10:20:57.774Z,2.03
2023-10-15T10:21:10.101Z,1.90
2023-10-15T10:21:21.967Z,1.95
2023-10-15T10:21:33.927Z,1.67
2023-10-15T10:21:46.374Z,1.48
2023-10-15T10:21:58.369Z,1.50
2023-10-15T10:22:20.699Z,1.50
2023-10-15T10:22:32.826Z,1.77
2023-10-15T10:22:57.820Z,1.98
2023-10-15T10:23:11.415Z,2.00
2023-10-15T10:23:32.233Z,2.00
2023-10-15T10:23:51.477Z,1.90
2023-10-15T10:24:09.110Z,1.60
2023-10-15T10:24:20.936Z,2.13
2023-10-15T10:24:42.582Z,2.28
2023-10-15T10:24:54.691Z,1.80
2023-10-15T10:25:08.669Z,1.98
2023-10-15T10:25:30.371Z,2.25
2023-10-15T10:25:44.202Z,2.45
2023-10-15T10:25:56.090Z,2.08
2023-10-15T10:26:12.544Z,1.48
2023-10-15T10:26:28.381Z,1.95
2023-10-15T10:26:40.648Z,2.15
2023-10-15T10:26:55.868Z,1.80
2023-10-15T10:27:15.331Z,1.83
2023-10-15T10:27:27.713Z,1.63
2023-10-15T10:27:43.135Z,1.80
2023-10-15T10:28:16.129Z,1.80
2023-10-15T10:28:32.682Z,2.42
2023-10-15T10:28:44.733Z,2.17
2023-10-15T10:28:58.184Z,1.85
2023-10-15T10:29:10.365Z,1.52
2023-10-15T10:29:24.727Z,1.52
2023-10-15T10:29:36.534Z,1.73
2023-10-15T10:29:52.410Z,1.63
2023-10-15T10:30:23.642Z,1.48
2023-10-15T10:30:37.636Z,1.60
2023-10-15T10:30:53.537Z,1.55
2023-10-15T10:31:05.712Z,1.60
2023-10-15T10:31:17.865Z,1.58
2023-10-15T10:31:29.883Z,1.88
2023-10-15T10:31:42.400Z,2.20